Аэропорт: Чебоксары. Чебоксары

ICAO: UWKS

METAR:
2019/03/26 13:00
UWKS 261300Z 16004MPS CAVOK 04/M04 Q1008 R24/220250 NOSIG RMK QFE742
METAR:
2015/12/20 18:00
TAF UWKS 201632Z 2018/2103 27003MPS 2700 -SNRA BR OVC007 
      TEMPO 2018/2102 0500 FZDZ FZFG OVC002